sensor_id;sensor_type;location;lat;lon;timestamp;pressure;altitude;pressure_sealevel;temperature;humidity
44313;BME280;38833;51.142;-0.974;2023-12-29T00:02:07;99148.18;;;28.02;30.55
44313;BME280;38833;51.142;-0.974;2023-12-29T00:04:40;99146.69;;;28.10;30.46
44313;BME280;38833;51.142;-0.974;2023-12-29T00:07:14;99144.07;;;28.30;30.17
44313;BME280;38833;51.142;-0.974;2023-12-29T00:09:48;99135.49;;;28.62;29.98
44313;BME280;38833;51.142;-0.974;2023-12-29T00:12:21;99137.66;;;28.64;29.93
44313;BME280;38833;51.142;-0.974;2023-12-29T00:14:54;99140.59;;;28.36;29.92
44313;BME280;38833;51.142;-0.974;2023-12-29T00:17:27;99139.31;;;28.41;29.83
44313;BME280;38833;51.142;-0.974;2023-12-29T00:20:01;99133.53;;;28.46;29.94
44313;BME280;38833;51.142;-0.974;2023-12-29T00:22:34;99138.41;;;27.98;29.91
44313;BME280;38833;51.142;-0.974;2023-12-29T00:25:08;99149.20;;;28.05;30.06
44313;BME280;38833;51.142;-0.974;2023-12-29T00:27:41;99148.72;;;27.68;30.13
44313;BME280;38833;51.142;-0.974;2023-12-29T00:30:15;99151.61;;;27.65;30.16
44313;BME280;38833;51.142;-0.974;2023-12-29T00:32:48;99152.81;;;27.51;30.23
44313;BME280;38833;51.142;-0.974;2023-12-29T00:35:22;99157.57;;;28.00;30.19
44313;BME280;38833;51.142;-0.974;2023-12-29T00:37:55;99151.55;;;27.70;30.24
44313;BME280;38833;51.142;-0.974;2023-12-29T00:40:28;99147.82;;;27.71;30.43
44313;BME280;38833;51.142;-0.974;2023-12-29T00:43:02;99152.62;;;27.79;30.33
44313;BME280;38833;51.142;-0.974;2023-12-29T00:45:35;99150.83;;;27.78;30.30
44313;BME280;38833;51.142;-0.974;2023-12-29T00:48:08;99146.05;;;27.54;30.28
44313;BME280;38833;51.142;-0.974;2023-12-29T00:50:42;99154.09;;;27.67;30.32
44313;BME280;38833;51.142;-0.974;2023-12-29T00:53:15;99149.06;;;27.66;30.26
44313;BME280;38833;51.142;-0.974;2023-12-29T00:55:49;99158.37;;;27.51;30.40
44313;BME280;38833;51.142;-0.974;2023-12-29T00:58:22;99152.59;;;27.64;30.21
44313;BME280;38833;51.142;-0.974;2023-12-29T01:00:55;99143.20;;;27.62;30.21
44313;BME280;38833;51.142;-0.974;2023-12-29T01:03:29;99144.15;;;27.48;30.29
44313;BME280;38833;51.142;-0.974;2023-12-29T01:06:03;99150.44;;;27.43;30.35
44313;BME280;38833;51.142;-0.974;2023-12-29T01:08:36;99154.38;;;27.70;30.30
44313;BME280;38833;51.142;-0.974;2023-12-29T01:11:09;99149.10;;;27.46;30.27
44313;BME280;38833;51.142;-0.974;2023-12-29T01:13:43;99148.86;;;27.35;30.34
44313;BME280;38833;51.142;-0.974;2023-12-29T01:16:16;99146.67;;;27.27;30.38
44313;BME280;38833;51.142;-0.974;2023-12-29T01:18:49;99135.30;;;27.28;30.32
44313;BME280;38833;51.142;-0.974;2023-12-29T01:21:22;99138.58;;;27.27;30.29
44313;BME280;38833;51.142;-0.974;2023-12-29T01:23:56;99140.72;;;27.26;30.27
44313;BME280;38833;51.142;-0.974;2023-12-29T01:26:29;99137.76;;;27.21;30.27
44313;BME280;38833;51.142;-0.974;2023-12-29T01:29:02;99132.47;;;27.03;30.43
44313;BME280;38833;51.142;-0.974;2023-12-29T01:31:36;99124.06;;;27.17;30.28
44313;BME280;38833;51.142;-0.974;2023-12-29T01:34:09;99125.01;;;27.28;30.40
44313;BME280;38833;51.142;-0.974;2023-12-29T01:36:42;99121.21;;;26.95;30.44
44313;BME280;38833;51.142;-0.974;2023-12-29T01:39:15;99114.90;;;27.44;30.42
44313;BME280;38833;51.142;-0.974;2023-12-29T01:41:49;99120.84;;;27.39;30.43
44313;BME280;38833;51.142;-0.974;2023-12-29T01:44:23;99123.07;;;27.10;30.47
44313;BME280;38833;51.142;-0.974;2023-12-29T01:46:59;99119.16;;;26.85;30.44
44313;BME280;38833;51.142;-0.974;2023-12-29T01:49:34;99115.07;;;27.12;30.39
44313;BME280;38833;51.142;-0.974;2023-12-29T01:52:07;99114.21;;;26.98;30.51
44313;BME280;38833;51.142;-0.974;2023-12-29T01:54:41;99100.87;;;26.98;30.49
44313;BME280;38833;51.142;-0.974;2023-12-29T01:57:14;99103.00;;;26.62;30.56
44313;BME280;38833;51.142;-0.974;2023-12-29T01:59:48;99093.62;;;26.93;30.47
44313;BME280;38833;51.142;-0.974;2023-12-29T02:02:22;99085.33;;;27.05;30.55
44313;BME280;38833;51.142;-0.974;2023-12-29T02:04:55;99082.10;;;27.10;30.46
44313;BME280;38833;51.142;-0.974;2023-12-29T02:07:28;99074.47;;;26.77;30.55
44313;BME280;38833;51.142;-0.974;2023-12-29T02:10:02;99079.62;;;26.84;30.45
44313;BME280;38833;51.142;-0.974;2023-12-29T02:12:35;99090.83;;;26.88;30.59
44313;BME280;38833;51.142;-0.974;2023-12-29T02:15:09;99090.58;;;26.81;30.65
44313;BME280;38833;51.142;-0.974;2023-12-29T02:17:48;99086.80;;;26.58;30.61
44313;BME280;38833;51.142;-0.974;2023-12-29T02:20:24;99093.38;;;26.49;30.68
44313;BME280;38833;51.142;-0.974;2023-12-29T02:22:57;99095.47;;;26.73;30.64
44313;BME280;38833;51.142;-0.974;2023-12-29T02:25:30;99100.89;;;26.83;30.53
44313;BME280;38833;51.142;-0.974;2023-12-29T02:28:09;99093.69;;;26.67;30.66
44313;BME280;38833;51.142;-0.974;2023-12-29T02:30:48;99086.10;;;26.74;30.55
44313;BME280;38833;51.142;-0.974;2023-12-29T02:33:24;99088.84;;;26.70;30.58
44313;BME280;38833;51.142;-0.974;2023-12-29T02:35:59;99088.87;;;26.59;30.65
44313;BME280;38833;51.142;-0.974;2023-12-29T02:38:34;99077.17;;;26.55;30.67
44313;BME280;38833;51.142;-0.974;2023-12-29T02:41:08;99084.28;;;26.75;30.66
44313;BME280;38833;51.142;-0.974;2023-12-29T02:43:43;99085.54;;;26.40;30.78
44313;BME280;38833;51.142;-0.974;2023-12-29T02:46:16;99081.87;;;26.44;30.71
44313;BME280;38833;51.142;-0.974;2023-12-29T02:48:50;99086.77;;;26.46;30.68
44313;BME280;38833;51.142;-0.974;2023-12-29T02:51:23;99088.89;;;26.34;30.78
44313;BME280;38833;51.142;-0.974;2023-12-29T02:53:56;99091.49;;;26.11;31.01
44313;BME280;38833;51.142;-0.974;2023-12-29T02:56:30;99092.17;;;26.55;30.75
44313;BME280;38833;51.142;-0.974;2023-12-29T02:59:03;99089.30;;;26.37;30.68
44313;BME280;38833;51.142;-0.974;2023-12-29T03:01:36;99087.58;;;26.19;30.80
44313;BME280;38833;51.142;-0.974;2023-12-29T03:04:10;99092.54;;;26.09;30.92
44313;BME280;38833;51.142;-0.974;2023-12-29T03:06:43;99088.95;;;26.36;30.84
44313;BME280;38833;51.142;-0.974;2023-12-29T03:09:16;99091.78;;;26.31;30.86
44313;BME280;38833;51.142;-0.974;2023-12-29T03:11:50;99081.81;;;26.20;30.71
44313;BME280;38833;51.142;-0.974;2023-12-29T03:14:23;99087.01;;;26.29;30.85
44313;BME280;38833;51.142;-0.974;2023-12-29T03:16:57;99088.02;;;26.29;30.81
44313;BME280;38833;51.142;-0.974;2023-12-29T03:19:30;99093.06;;;25.93;30.96
44313;BME280;38833;51.142;-0.974;2023-12-29T03:22:03;99090.04;;;26.14;30.91
44313;BME280;38833;51.142;-0.974;2023-12-29T03:24:39;99077.43;;;26.22;30.83
44313;BME280;38833;51.142;-0.974;2023-12-29T03:27:13;99073.96;;;25.96;30.85
44313;BME280;38833;51.142;-0.974;2023-12-29T03:29:46;99073.01;;;26.00;31.03
44313;BME280;38833;51.142;-0.974;2023-12-29T03:32:20;99062.18;;;25.99;30.77
44313;BME280;38833;51.142;-0.974;2023-12-29T03:34:53;99066.03;;;26.16;30.80
44313;BME280;38833;51.142;-0.974;2023-12-29T03:37:26;99059.18;;;25.97;30.96
44313;BME280;38833;51.142;-0.974;2023-12-29T03:40:00;99054.36;;;26.02;30.90
44313;BME280;38833;51.142;-0.974;2023-12-29T03:42:33;99050.76;;;25.67;31.01
44313;BME280;38833;51.142;-0.974;2023-12-29T03:45:08;99043.00;;;25.71;30.95
44313;BME280;38833;51.142;-0.974;2023-12-29T03:47:41;99042.38;;;25.89;30.95
44313;BME280;38833;51.142;-0.974;2023-12-29T03:50:14;99034.90;;;25.85;30.98
44313;BME280;38833;51.142;-0.974;2023-12-29T03:52:48;99029.40;;;25.93;30.87
44313;BME280;38833;51.142;-0.974;2023-12-29T03:55:21;99033.86;;;25.68;30.90
44313;BME280;38833;51.142;-0.974;2023-12-29T03:57:55;99031.49;;;25.89;30.88
44313;BME280;38833;51.142;-0.974;2023-12-29T04:00:28;99032.35;;;25.99;31.03
44313;BME280;38833;51.142;-0.974;2023-12-29T04:03:02;99040.24;;;26.03;30.96
44313;BME280;38833;51.142;-0.974;2023-12-29T04:05:35;99043.35;;;25.80;30.92
44313;BME280;38833;51.142;-0.974;2023-12-29T04:08:09;99046.15;;;25.97;31.00
44313;BME280;38833;51.142;-0.974;2023-12-29T04:10:42;99036.06;;;25.76;30.96
44313;BME280;38833;51.142;-0.974;2023-12-29T04:13:16;99027.03;;;25.60;31.06
44313;BME280;38833;51.142;-0.974;2023-12-29T04:15:49;99025.52;;;25.93;30.98
44313;BME280;38833;51.142;-0.974;2023-12-29T04:18:23;99024.45;;;25.89;31.01
44313;BME280;38833;51.142;-0.974;2023-12-29T04:20:57;99016.30;;;25.97;30.90
44313;BME280;38833;51.142;-0.974;2023-12-29T04:23:30;99013.34;;;25.60;30.98
44313;BME280;38833;51.142;-0.974;2023-12-29T04:26:04;99016.84;;;25.88;30.95
44313;BME280;38833;51.142;-0.974;2023-12-29T04:28:38;99020.98;;;25.54;31.01
44313;BME280;38833;51.142;-0.974;2023-12-29T04:31:11;99020.90;;;25.82;31.01
44313;BME280;38833;51.142;-0.974;2023-12-29T04:33:45;99022.18;;;25.53;30.98
44313;BME280;38833;51.142;-0.974;2023-12-29T04:36:18;99024.92;;;25.50;31.01
44313;BME280;38833;51.142;-0.974;2023-12-29T04:38:51;99024.03;;;25.46;31.04
44313;BME280;38833;51.142;-0.974;2023-12-29T04:41:24;99020.33;;;25.69;31.05
44313;BME280;38833;51.142;-0.974;2023-12-29T04:43:58;99020.86;;;25.71;31.03
44313;BME280;38833;51.142;-0.974;2023-12-29T04:46:31;99012.01;;;25.71;31.00
44313;BME280;38833;51.142;-0.974;2023-12-29T04:49:04;99017.79;;;25.32;31.09
44313;BME280;38833;51.142;-0.974;2023-12-29T04:51:38;99023.19;;;25.56;31.08
44313;BME280;38833;51.142;-0.974;2023-12-29T04:54:11;99019.79;;;25.57;31.07
44313;BME280;38833;51.142;-0.974;2023-12-29T04:56:44;99025.01;;;25.47;31.17
44313;BME280;38833;51.142;-0.974;2023-12-29T04:59:18;99018.24;;;25.47;31.14
44313;BME280;38833;51.142;-0.974;2023-12-29T05:01:51;99024.36;;;25.51;31.07
44313;BME280;38833;51.142;-0.974;2023-12-29T05:04:24;99021.95;;;25.46;31.10
44313;BME280;38833;51.142;-0.974;2023-12-29T05:06:57;99029.38;;;25.44;31.11
44313;BME280;38833;51.142;-0.974;2023-12-29T05:09:31;99032.54;;;25.42;31.11
44313;BME280;38833;51.142;-0.974;2023-12-29T05:12:05;99033.44;;;25.42;31.10
44313;BME280;38833;51.142;-0.974;2023-12-29T05:14:38;99027.22;;;25.39;31.10
44313;BME280;38833;51.142;-0.974;2023-12-29T05:17:12;99025.32;;;25.28;31.20
44313;BME280;38833;51.142;-0.974;2023-12-29T05:19:45;99033.28;;;25.28;31.18
44313;BME280;38833;51.142;-0.974;2023-12-29T05:22:18;99037.60;;;25.06;31.11
44313;BME280;38833;51.142;-0.974;2023-12-29T05:24:51;99045.43;;;25.21;31.21
44313;BME280;38833;51.142;-0.974;2023-12-29T05:27:25;99047.58;;;25.49;31.13
44313;BME280;38833;51.142;-0.974;2023-12-29T05:29:58;99053.53;;;25.15;31.24
44313;BME280;38833;51.142;-0.974;2023-12-29T05:32:31;99056.26;;;25.22;31.16
44313;BME280;38833;51.142;-0.974;2023-12-29T05:35:06;99055.31;;;25.19;31.18
44313;BME280;38833;51.142;-0.974;2023-12-29T05:37:39;99064.97;;;25.23;31.10
44313;BME280;38833;51.142;-0.974;2023-12-29T05:40:12;99067.19;;;25.15;31.16
44313;BME280;38833;51.142;-0.974;2023-12-29T05:42:46;99067.75;;;24.99;31.44
44313;BME280;38833;51.142;-0.974;2023-12-29T05:45:19;99070.83;;;24.89;31.67
44313;BME280;38833;51.142;-0.974;2023-12-29T05:47:52;99071.58;;;24.86;31.69
44313;BME280;38833;51.142;-0.974;2023-12-29T05:50:25;99076.87;;;25.37;31.20
44313;BME280;38833;51.142;-0.974;2023-12-29T05:52:59;99077.71;;;25.36;31.29
44313;BME280;38833;51.142;-0.974;2023-12-29T05:55:32;99084.61;;;25.36;31.37
44313;BME280;38833;51.142;-0.974;2023-12-29T05:58:06;99086.97;;;25.49;31.37
44313;BME280;38833;51.142;-0.974;2023-12-29T06:00:39;99078.52;;;25.88;31.25
44313;BME280;38833;51.142;-0.974;2023-12-29T06:03:12;99080.63;;;25.76;31.20
44313;BME280;38833;51.142;-0.974;2023-12-29T06:05:46;99075.05;;;25.94;31.12
44313;BME280;38833;51.142;-0.974;2023-12-29T06:08:19;99075.59;;;26.30;30.79
44313;BME280;38833;51.142;-0.974;2023-12-29T06:10:52;99076.69;;;26.35;30.82
44313;BME280;38833;51.142;-0.974;2023-12-29T06:13:27;99075.57;;;26.59;30.66
44313;BME280;38833;51.142;-0.974;2023-12-29T06:16:01;99073.80;;;26.35;30.68
44313;BME280;38833;51.142;-0.974;2023-12-29T06:18:34;99076.01;;;26.93;30.44
44313;BME280;38833;51.142;-0.974;2023-12-29T06:21:08;99077.62;;;26.76;30.40
44313;BME280;38833;51.142;-0.974;2023-12-29T06:23:41;99081.30;;;26.33;30.66
44313;BME280;38833;51.142;-0.974;2023-12-29T06:26:16;99083.84;;;26.67;30.40
44313;BME280;38833;51.142;-0.974;2023-12-29T06:28:49;99087.51;;;26.66;30.69
44313;BME280;38833;51.142;-0.974;2023-12-29T06:31:23;99090.52;;;26.80;30.37
44313;BME280;38833;51.142;-0.974;2023-12-29T06:33:56;99098.93;;;27.18;30.25
44313;BME280;38833;51.142;-0.974;2023-12-29T06:36:30;99100.51;;;27.31;29.95
44313;BME280;38833;51.142;-0.974;2023-12-29T06:39:03;99100.43;;;27.28;29.77
44313;BME280;38833;51.142;-0.974;2023-12-29T06:41:36;99107.88;;;27.39;29.96
44313;BME280;38833;51.142;-0.974;2023-12-29T06:44:09;99098.25;;;27.52;29.86
44313;BME280;38833;51.142;-0.974;2023-12-29T06:46:43;99103.54;;;27.13;29.80
44313;BME280;38833;51.142;-0.974;2023-12-29T06:49:16;99106.65;;;27.69;29.79
44313;BME280;38833;51.142;-0.974;2023-12-29T06:51:49;99106.93;;;27.53;29.71
44313;BME280;38833;51.142;-0.974;2023-12-29T06:54:24;99104.20;;;27.23;29.83
44313;BME280;38833;51.142;-0.974;2023-12-29T06:56:58;99109.77;;;27.95;29.64
44313;BME280;38833;51.142;-0.974;2023-12-29T06:59:31;99105.77;;;27.77;29.80
44313;BME280;38833;51.142;-0.974;2023-12-29T07:02:05;99109.08;;;27.18;29.95
44313;BME280;38833;51.142;-0.974;2023-12-29T07:04:42;99108.06;;;27.80;29.64
44313;BME280;38833;51.142;-0.974;2023-12-29T07:07:16;99107.67;;;27.42;29.77
44313;BME280;38833;51.142;-0.974;2023-12-29T07:09:49;99101.67;;;27.90;29.59
44313;BME280;38833;51.142;-0.974;2023-12-29T07:12:22;99100.00;;;27.27;29.95
44313;BME280;38833;51.142;-0.974;2023-12-29T07:14:56;99090.91;;;27.37;29.84
44313;BME280;38833;51.142;-0.974;2023-12-29T07:17:29;99086.16;;;27.32;29.96
44313;BME280;38833;51.142;-0.974;2023-12-29T07:20:02;99083.61;;;27.34;29.96
44313;BME280;38833;51.142;-0.974;2023-12-29T07:22:36;99088.75;;;27.20;30.07
44313;BME280;38833;51.142;-0.974;2023-12-29T07:25:10;99084.99;;;27.52;29.77
44313;BME280;38833;51.142;-0.974;2023-12-29T07:27:43;99086.50;;;27.60;29.67
44313;BME280;38833;51.142;-0.974;2023-12-29T07:30:17;99094.91;;;27.84;29.44
44313;BME280;38833;51.142;-0.974;2023-12-29T07:32:51;99097.15;;;27.41;29.89
44313;BME280;38833;51.142;-0.974;2023-12-29T07:35:24;99097.91;;;27.47;29.87
44313;BME280;38833;51.142;-0.974;2023-12-29T07:37:57;99094.02;;;27.72;29.61
44313;BME280;38833;51.142;-0.974;2023-12-29T07:40:31;99100.05;;;26.85;30.47
44313;BME280;38833;51.142;-0.974;2023-12-29T07:43:05;99103.59;;;26.90;30.44
44313;BME280;38833;51.142;-0.974;2023-12-29T07:45:38;99098.14;;;27.25;30.16
44313;BME280;38833;51.142;-0.974;2023-12-29T07:48:11;99092.77;;;27.39;29.95
44313;BME280;38833;51.142;-0.974;2023-12-29T07:50:45;99087.34;;;27.65;29.71
44313;BME280;38833;51.142;-0.974;2023-12-29T07:53:18;99087.49;;;27.46;29.90
44313;BME280;38833;51.142;-0.974;2023-12-29T07:55:51;99086.84;;;27.20;30.17
44313;BME280;38833;51.142;-0.974;2023-12-29T07:58:25;99089.57;;;27.42;29.99
44313;BME280;38833;51.142;-0.974;2023-12-29T08:00:58;99089.00;;;27.01;30.39
44313;BME280;38833;51.142;-0.974;2023-12-29T08:03:31;99090.11;;;27.18;30.20
44313;BME280;38833;51.142;-0.974;2023-12-29T08:06:05;99090.23;;;27.34;30.06
44313;BME280;38833;51.142;-0.974;2023-12-29T08:08:38;99086.19;;;27.28;30.09
44313;BME280;38833;51.142;-0.974;2023-12-29T08:11:13;99093.57;;;27.74;29.64
44313;BME280;38833;51.142;-0.974;2023-12-29T08:13:47;99096.61;;;27.41;30.02
44313;BME280;38833;51.142;-0.974;2023-12-29T08:16:21;99100.13;;;27.10;30.11
44313;BME280;38833;51.142;-0.974;2023-12-29T08:18:54;99099.78;;;27.00;30.45
44313;BME280;38833;51.142;-0.974;2023-12-29T08:21:28;99093.55;;;27.34;30.12
44313;BME280;38833;51.142;-0.974;2023-12-29T08:24:01;99090.30;;;27.01;30.44
44313;BME280;38833;51.142;-0.974;2023-12-29T08:26:39;99088.11;;;27.04;30.41
44313;BME280;38833;51.142;-0.974;2023-12-29T08:29:15;99089.27;;;27.20;30.23
44313;BME280;38833;51.142;-0.974;2023-12-29T08:31:48;99108.54;;;27.16;30.27
44313;BME280;38833;51.142;-0.974;2023-12-29T08:34:21;99109.39;;;27.20;30.22
44313;BME280;38833;51.142;-0.974;2023-12-29T08:36:55;99109.22;;;27.55;29.86
44313;BME280;38833;51.142;-0.974;2023-12-29T08:39:28;99102.10;;;27.74;29.57
44313;BME280;38833;51.142;-0.974;2023-12-29T08:42:01;99103.93;;;28.00;29.35
44313;BME280;38833;51.142;-0.974;2023-12-29T08:44:35;99099.84;;;28.06;29.22
44313;BME280;38833;51.142;-0.974;2023-12-29T08:47:08;99106.66;;;28.07;29.21
44313;BME280;38833;51.142;-0.974;2023-12-29T08:49:42;99114.00;;;27.75;29.46
44313;BME280;38833;51.142;-0.974;2023-12-29T08:52:15;99115.98;;;27.82;29.39
44313;BME280;38833;51.142;-0.974;2023-12-29T08:54:49;99117.39;;;27.83;29.38
44313;BME280;38833;51.142;-0.974;2023-12-29T08:57:22;99126.45;;;28.07;29.10
44313;BME280;38833;51.142;-0.974;2023-12-29T08:59:55;99128.80;;;27.86;29.30
44313;BME280;38833;51.142;-0.974;2023-12-29T09:02:29;99131.65;;;27.81;29.36
44313;BME280;38833;51.142;-0.974;2023-12-29T09:05:02;99130.54;;;27.85;29.31
44313;BME280;38833;51.142;-0.974;2023-12-29T09:07:36;99135.08;;;27.81;29.32
44313;BME280;38833;51.142;-0.974;2023-12-29T09:10:09;99136.65;;;27.71;29.28
44313;BME280;38833;51.142;-0.974;2023-12-29T09:12:42;99140.25;;;27.72;29.14
44313;BME280;38833;51.142;-0.974;2023-12-29T09:15:16;99144.70;;;27.94;28.72
44313;BME280;38833;51.142;-0.974;2023-12-29T09:17:50;99142.08;;;27.82;28.76
44313;BME280;38833;51.142;-0.974;2023-12-29T09:20:23;99144.58;;;27.80;28.63
44313;BME280;38833;51.142;-0.974;2023-12-29T09:22:56;99143.03;;;27.79;28.62
44313;BME280;38833;51.142;-0.974;2023-12-29T09:25:30;99146.73;;;27.62;28.61
44313;BME280;38833;51.142;-0.974;2023-12-29T09:28:03;99142.37;;;27.80;28.65
44313;BME280;38833;51.142;-0.974;2023-12-29T09:30:36;99149.23;;;27.52;28.83
44313;BME280;38833;51.142;-0.974;2023-12-29T09:33:10;99151.63;;;27.66;28.69
44313;BME280;38833;51.142;-0.974;2023-12-29T09:35:44;99153.20;;;27.48;28.90
44313;BME280;38833;51.142;-0.974;2023-12-29T09:38:17;99155.50;;;27.43;28.86
44313;BME280;38833;51.142;-0.974;2023-12-29T09:40:51;99162.02;;;27.26;28.65
44313;BME280;38833;51.142;-0.974;2023-12-29T09:43:25;99166.72;;;27.42;28.59
44313;BME280;38833;51.142;-0.974;2023-12-29T09:45:59;99161.62;;;27.29;28.72
44313;BME280;38833;51.142;-0.974;2023-12-29T09:48:34;99158.17;;;26.91;28.49
44313;BME280;38833;51.142;-0.974;2023-12-29T09:51:10;99155.47;;;27.18;28.06
44313;BME280;38833;51.142;-0.974;2023-12-29T09:53:44;99154.89;;;27.45;27.60
44313;BME280;38833;51.142;-0.974;2023-12-29T09:56:18;99157.14;;;27.60;27.23
44313;BME280;38833;51.142;-0.974;2023-12-29T09:58:52;99156.81;;;27.81;27.13
44313;BME280;38833;51.142;-0.974;2023-12-29T10:01:27;99156.37;;;27.88;27.43
44313;BME280;38833;51.142;-0.974;2023-12-29T10:04:02;99157.34;;;27.10;27.61
44313;BME280;38833;51.142;-0.974;2023-12-29T10:06:37;99155.37;;;27.14;27.83
44313;BME280;38833;51.142;-0.974;2023-12-29T10:09:13;99157.90;;;27.32;27.83
44313;BME280;38833;51.142;-0.974;2023-12-29T10:11:48;99165.85;;;27.14;27.93
44313;BME280;38833;51.142;-0.974;2023-12-29T10:14:26;99165.42;;;26.79;28.01
44313;BME280;38833;51.142;-0.974;2023-12-29T10:17:09;99170.09;;;26.71;28.02
44313;BME280;38833;51.142;-0.974;2023-12-29T10:19:49;99171.24;;;26.96;27.95
44313;BME280;38833;51.142;-0.974;2023-12-29T10:22:35;99170.11;;;26.72;28.11
44313;BME280;38833;51.142;-0.974;2023-12-29T10:25:13;99170.79;;;26.83;28.16
44313;BME280;38833;51.142;-0.974;2023-12-29T10:27:46;99166.30;;;26.99;28.37
44313;BME280;38833;51.142;-0.974;2023-12-29T10:30:20;99160.31;;;26.60;28.59
44313;BME280;38833;51.142;-0.974;2023-12-29T10:32:54;99163.32;;;26.61;28.76
44313;BME280;38833;51.142;-0.974;2023-12-29T10:35:27;99151.59;;;26.74;28.67
44313;BME280;38833;51.142;-0.974;2023-12-29T10:38:08;99149.37;;;26.42;29.04
44313;BME280;38833;51.142;-0.974;2023-12-29T10:40:42;99150.27;;;26.39;28.84
44313;BME280;38833;51.142;-0.974;2023-12-29T10:43:23;99143.14;;;26.60;28.85
44313;BME280;38833;51.142;-0.974;2023-12-29T10:46:06;99141.89;;;26.73;29.00
44313;BME280;38833;51.142;-0.974;2023-12-29T10:48:40;99137.75;;;26.25;28.97
44313;BME280;38833;51.142;-0.974;2023-12-29T10:51:13;99146.90;;;26.16;28.53
44313;BME280;38833;51.142;-0.974;2023-12-29T10:53:55;99128.91;;;26.31;28.35
44313;BME280;38833;51.142;-0.974;2023-12-29T10:56:29;99132.82;;;26.82;28.08
44313;BME280;38833;51.142;-0.974;2023-12-29T10:59:04;99130.80;;;26.84;27.98
44313;BME280;38833;51.142;-0.974;2023-12-29T11:01:37;99125.09;;;27.01;28.24
44313;BME280;38833;51.142;-0.974;2023-12-29T11:04:11;99109.62;;;26.77;28.42
44313;BME280;38833;51.142;-0.974;2023-12-29T11:06:45;99099.61;;;26.66;28.49
44313;BME280;38833;51.142;-0.974;2023-12-29T11:09:28;99097.74;;;26.68;28.89
44313;BME280;38833;51.142;-0.974;2023-12-29T11:12:03;99102.61;;;26.20;29.10
44313;BME280;38833;51.142;-0.974;2023-12-29T11:14:37;99106.80;;;26.45;29.01
44313;BME280;38833;51.142;-0.974;2023-12-29T11:17:11;99104.33;;;26.38;28.79
44313;BME280;38833;51.142;-0.974;2023-12-29T11:19:46;99105.27;;;26.35;28.70
44313;BME280;38833;51.142;-0.974;2023-12-29T11:22:20;99099.58;;;26.30;28.83
44313;BME280;38833;51.142;-0.974;2023-12-29T11:24:54;99097.20;;;26.49;28.93
44313;BME280;38833;51.142;-0.974;2023-12-29T11:27:29;99101.99;;;26.24;28.95
44313;BME280;38833;51.142;-0.974;2023-12-29T11:30:04;99099.18;;;26.26;28.94
44313;BME280;38833;51.142;-0.974;2023-12-29T11:32:44;99098.80;;;26.19;29.06
44313;BME280;38833;51.142;-0.974;2023-12-29T11:35:25;99107.46;;;26.26;29.28
44313;BME280;38833;51.142;-0.974;2023-12-29T11:38:12;99105.23;;;26.23;29.19
44313;BME280;38833;51.142;-0.974;2023-12-29T11:40:52;99104.01;;;26.26;29.11
44313;BME280;38833;51.142;-0.974;2023-12-29T11:43:28;99105.85;;;26.23;29.08
44313;BME280;38833;51.142;-0.974;2023-12-29T11:46:02;99110.02;;;26.01;29.31
44313;BME280;38833;51.142;-0.974;2023-12-29T11:49:07;99111.06;;;26.21;29.09
44313;BME280;38833;51.142;-0.974;2023-12-29T11:51:42;99108.81;;;26.12;29.14
44313;BME280;38833;51.142;-0.974;2023-12-29T11:54:22;99109.30;;;26.11;29.20
44313;BME280;38833;51.142;-0.974;2023-12-29T11:56:56;99117.67;;;26.15;29.00
44313;BME280;38833;51.142;-0.974;2023-12-29T11:59:29;99112.40;;;26.13;28.90
44313;BME280;38833;51.142;-0.974;2023-12-29T12:02:06;99124.44;;;25.82;29.02
44313;BME280;38833;51.142;-0.974;2023-12-29T12:04:59;99133.32;;;26.17;28.80
44313;BME280;38833;51.142;-0.974;2023-12-29T12:08:05;99121.92;;;26.29;28.86
44313;BME280;38833;51.142;-0.974;2023-12-29T12:10:38;99120.57;;;26.20;28.94
44313;BME280;38833;51.142;-0.974;2023-12-29T12:13:12;99123.07;;;25.96;28.96
44313;BME280;38833;51.142;-0.974;2023-12-29T12:15:45;99125.80;;;26.10;28.64
44313;BME280;38833;51.142;-0.974;2023-12-29T12:18:19;99115.35;;;26.04;28.76
44313;BME280;38833;51.142;-0.974;2023-12-29T12:20:52;99105.97;;;25.99;28.85
44313;BME280;38833;51.142;-0.974;2023-12-29T12:23:27;99107.87;;;26.04;28.61
44313;BME280;38833;51.142;-0.974;2023-12-29T12:26:05;99115.63;;;25.99;28.72
44313;BME280;38833;51.142;-0.974;2023-12-29T12:28:39;99110.60;;;25.92;28.71
44313;BME280;38833;51.142;-0.974;2023-12-29T12:31:13;99117.70;;;25.98;28.57
44313;BME280;38833;51.142;-0.974;2023-12-29T12:33:53;99106.19;;;25.91;28.62
44313;BME280;38833;51.142;-0.974;2023-12-29T12:36:27;99111.55;;;25.89;28.53
44313;BME280;38833;51.142;-0.974;2023-12-29T12:39:00;99106.28;;;25.92;28.45
44313;BME280;38833;51.142;-0.974;2023-12-29T12:41:34;99111.93;;;25.78;28.58
44313;BME280;38833;51.142;-0.974;2023-12-29T12:44:10;99104.43;;;25.79;28.62
44313;BME280;38833;51.142;-0.974;2023-12-29T12:46:50;99092.96;;;25.74;28.66
44313;BME280;38833;51.142;-0.974;2023-12-29T12:49:25;99087.97;;;25.71;28.65
44313;BME280;38833;51.142;-0.974;2023-12-29T12:51:58;99084.44;;;25.77;28.53
44313;BME280;38833;51.142;-0.974;2023-12-29T12:54:32;99077.26;;;25.94;28.61
44313;BME280;38833;51.142;-0.974;2023-12-29T12:57:05;99082.48;;;25.72;28.57
44313;BME280;38833;51.142;-0.974;2023-12-29T12:59:39;99093.26;;;25.85;28.74
44313;BME280;38833;51.142;-0.974;2023-12-29T13:02:12;99087.80;;;25.61;28.68
44313;BME280;38833;51.142;-0.974;2023-12-29T13:04:46;99086.78;;;25.85;28.64
44313;BME280;38833;51.142;-0.974;2023-12-29T13:07:20;99088.21;;;25.68;28.48
44313;BME280;38833;51.142;-0.974;2023-12-29T13:09:53;99093.34;;;25.63;28.56
44313;BME280;38833;51.142;-0.974;2023-12-29T13:12:28;99092.30;;;25.77;28.23
44313;BME280;38833;51.142;-0.974;2023-12-29T13:15:09;99104.70;;;25.70;28.42
44313;BME280;38833;51.142;-0.974;2023-12-29T13:17:50;99109.04;;;25.64;28.52
44313;BME280;38833;51.142;-0.974;2023-12-29T13:20:24;99099.64;;;25.71;28.42
44313;BME280;38833;51.142;-0.974;2023-12-29T13:22:57;99098.45;;;25.71;28.34
44313;BME280;38833;51.142;-0.974;2023-12-29T13:25:31;99108.58;;;25.72;28.30
44313;BME280;38833;51.142;-0.974;2023-12-29T13:28:05;99095.02;;;25.68;28.39